sensor_id;sensor_type;location;lat;lon;timestamp;temperature;humidity
5276;DHT22;2661;50.786;12.728;2022-07-06T00:00:18;15.80;99.90
5276;DHT22;2661;50.786;12.728;2022-07-06T00:02:44;15.90;99.90
5276;DHT22;2661;50.786;12.728;2022-07-06T00:05:11;15.90;99.90
5276;DHT22;2661;50.786;12.728;2022-07-06T00:07:38;15.80;99.90
5276;DHT22;2661;50.786;12.728;2022-07-06T00:10:05;15.80;99.90
5276;DHT22;2661;50.786;12.728;2022-07-06T00:12:32;15.90;99.90
5276;DHT22;2661;50.786;12.728;2022-07-06T00:14:59;15.90;99.90
5276;DHT22;2661;50.786;12.728;2022-07-06T00:17:25;15.90;99.90
5276;DHT22;2661;50.786;12.728;2022-07-06T00:19:52;15.80;99.90
5276;DHT22;2661;50.786;12.728;2022-07-06T00:22:19;15.70;99.90
5276;DHT22;2661;50.786;12.728;2022-07-06T00:24:45;15.70;99.90
5276;DHT22;2661;50.786;12.728;2022-07-06T00:27:12;15.70;99.90
5276;DHT22;2661;50.786;12.728;2022-07-06T00:29:39;15.70;99.90
5276;DHT22;2661;50.786;12.728;2022-07-06T00:32:10;15.70;99.90
5276;DHT22;2661;50.786;12.728;2022-07-06T00:34:38;15.70;99.90
5276;DHT22;2661;50.786;12.728;2022-07-06T00:37:07;15.70;99.90
5276;DHT22;2661;50.786;12.728;2022-07-06T00:39:34;15.70;99.90
5276;DHT22;2661;50.786;12.728;2022-07-06T00:42:01;15.70;99.90
5276;DHT22;2661;50.786;12.728;2022-07-06T00:44:28;15.70;99.90
5276;DHT22;2661;50.786;12.728;2022-07-06T00:46:55;15.60;99.90
5276;DHT22;2661;50.786;12.728;2022-07-06T00:49:22;15.60;99.90
5276;DHT22;2661;50.786;12.728;2022-07-06T00:52:07;15.60;99.90
5276;DHT22;2661;50.786;12.728;2022-07-06T00:54:34;15.60;99.90
5276;DHT22;2661;50.786;12.728;2022-07-06T00:57:02;15.70;99.90
5276;DHT22;2661;50.786;12.728;2022-07-06T00:59:29;15.70;99.90
5276;DHT22;2661;50.786;12.728;2022-07-06T01:01:55;15.70;99.90
5276;DHT22;2661;50.786;12.728;2022-07-06T01:04:22;15.80;99.90
5276;DHT22;2661;50.786;12.728;2022-07-06T01:06:49;15.80;99.90
5276;DHT22;2661;50.786;12.728;2022-07-06T01:09:16;15.80;99.90
5276;DHT22;2661;50.786;12.728;2022-07-06T01:11:43;15.80;99.90
5276;DHT22;2661;50.786;12.728;2022-07-06T01:14:10;15.70;99.90
5276;DHT22;2661;50.786;12.728;2022-07-06T01:16:37;15.60;99.90
5276;DHT22;2661;50.786;12.728;2022-07-06T01:19:04;15.60;99.90
5276;DHT22;2661;50.786;12.728;2022-07-06T01:21:31;15.40;99.90
5276;DHT22;2661;50.786;12.728;2022-07-06T01:23:58;15.40;99.90
5276;DHT22;2661;50.786;12.728;2022-07-06T01:26:24;15.40;99.90
5276;DHT22;2661;50.786;12.728;2022-07-06T01:28:51;15.40;99.90
5276;DHT22;2661;50.786;12.728;2022-07-06T01:31:22;15.40;99.90
5276;DHT22;2661;50.786;12.728;2022-07-06T01:33:50;15.40;99.90
5276;DHT22;2661;50.786;12.728;2022-07-06T01:36:17;15.30;99.90
5276;DHT22;2661;50.786;12.728;2022-07-06T01:38:51;15.30;99.90
5276;DHT22;2661;50.786;12.728;2022-07-06T01:41:18;15.20;99.90
5276;DHT22;2661;50.786;12.728;2022-07-06T01:43:45;15.20;99.90
5276;DHT22;2661;50.786;12.728;2022-07-06T01:46:12;15.20;99.90
5276;DHT22;2661;50.786;12.728;2022-07-06T01:48:40;15.20;99.90
5276;DHT22;2661;50.786;12.728;2022-07-06T01:51:07;15.20;99.90
5276;DHT22;2661;50.786;12.728;2022-07-06T01:53:34;15.20;99.90
5276;DHT22;2661;50.786;12.728;2022-07-06T01:56:00;15.30;99.90
5276;DHT22;2661;50.786;12.728;2022-07-06T01:58:27;15.40;99.90
5276;DHT22;2661;50.786;12.728;2022-07-06T02:00:54;15.50;99.90
5276;DHT22;2661;50.786;12.728;2022-07-06T02:03:21;15.60;99.90
5276;DHT22;2661;50.786;12.728;2022-07-06T02:05:48;15.70;99.90
5276;DHT22;2661;50.786;12.728;2022-07-06T02:08:14;15.60;99.90
5276;DHT22;2661;50.786;12.728;2022-07-06T02:10:41;15.50;99.90
5276;DHT22;2661;50.786;12.728;2022-07-06T02:13:08;15.30;99.90
5276;DHT22;2661;50.786;12.728;2022-07-06T02:15:35;15.20;99.90
5276;DHT22;2661;50.786;12.728;2022-07-06T02:18:01;15.10;99.90
5276;DHT22;2661;50.786;12.728;2022-07-06T02:20:28;15.20;99.90
5276;DHT22;2661;50.786;12.728;2022-07-06T02:22:55;15.10;99.90
5276;DHT22;2661;50.786;12.728;2022-07-06T02:25:22;15.00;99.90
5276;DHT22;2661;50.786;12.728;2022-07-06T02:27:48;15.00;99.90
5276;DHT22;2661;50.786;12.728;2022-07-06T02:30:15;14.90;99.90
5276;DHT22;2661;50.786;12.728;2022-07-06T02:32:42;14.80;99.90
5276;DHT22;2661;50.786;12.728;2022-07-06T02:35:09;14.80;99.90
5276;DHT22;2661;50.786;12.728;2022-07-06T02:37:35;14.90;99.90
5276;DHT22;2661;50.786;12.728;2022-07-06T02:40:02;14.90;99.90
5276;DHT22;2661;50.786;12.728;2022-07-06T02:42:29;14.90;99.90
5276;DHT22;2661;50.786;12.728;2022-07-06T02:44:56;14.90;99.90
5276;DHT22;2661;50.786;12.728;2022-07-06T02:47:22;14.80;99.90
5276;DHT22;2661;50.786;12.728;2022-07-06T02:49:49;14.70;99.90
5276;DHT22;2661;50.786;12.728;2022-07-06T02:52:16;14.60;99.90
5276;DHT22;2661;50.786;12.728;2022-07-06T02:54:43;14.60;99.90
5276;DHT22;2661;50.786;12.728;2022-07-06T02:57:09;14.60;99.90
5276;DHT22;2661;50.786;12.728;2022-07-06T02:59:36;14.60;99.90
5276;DHT22;2661;50.786;12.728;2022-07-06T03:02:04;14.50;99.90
5276;DHT22;2661;50.786;12.728;2022-07-06T03:04:30;14.50;99.90
5276;DHT22;2661;50.786;12.728;2022-07-06T03:06:57;14.40;99.90
5276;DHT22;2661;50.786;12.728;2022-07-06T03:09:24;14.30;99.90
5276;DHT22;2661;50.786;12.728;2022-07-06T03:11:51;14.30;99.90
5276;DHT22;2661;50.786;12.728;2022-07-06T03:14:18;14.20;99.90
5276;DHT22;2661;50.786;12.728;2022-07-06T03:16:44;14.10;99.90
5276;DHT22;2661;50.786;12.728;2022-07-06T03:19:17;14.00;99.90
5276;DHT22;2661;50.786;12.728;2022-07-06T03:21:43;14.00;99.90
5276;DHT22;2661;50.786;12.728;2022-07-06T03:24:10;14.00;99.90
5276;DHT22;2661;50.786;12.728;2022-07-06T03:26:37;13.90;99.90
5276;DHT22;2661;50.786;12.728;2022-07-06T03:29:04;13.90;99.90
5276;DHT22;2661;50.786;12.728;2022-07-06T03:31:30;14.00;99.90
5276;DHT22;2661;50.786;12.728;2022-07-06T03:33:57;14.00;99.90
5276;DHT22;2661;50.786;12.728;2022-07-06T03:36:24;14.00;99.90
5276;DHT22;2661;50.786;12.728;2022-07-06T03:38:51;14.00;99.90
5276;DHT22;2661;50.786;12.728;2022-07-06T03:41:18;14.00;99.90
5276;DHT22;2661;50.786;12.728;2022-07-06T03:43:44;14.00;99.90
5276;DHT22;2661;50.786;12.728;2022-07-06T03:46:11;13.90;99.90
5276;DHT22;2661;50.786;12.728;2022-07-06T03:48:38;13.90;99.90
5276;DHT22;2661;50.786;12.728;2022-07-06T03:51:04;13.90;99.90
5276;DHT22;2661;50.786;12.728;2022-07-06T03:53:32;13.90;99.90
5276;DHT22;2661;50.786;12.728;2022-07-06T03:55:59;13.90;99.90
5276;DHT22;2661;50.786;12.728;2022-07-06T03:58:44;13.90;99.90
5276;DHT22;2661;50.786;12.728;2022-07-06T04:01:11;13.90;99.90
5276;DHT22;2661;50.786;12.728;2022-07-06T04:03:38;14.00;99.90
5276;DHT22;2661;50.786;12.728;2022-07-06T04:06:06;14.00;99.90
5276;DHT22;2661;50.786;12.728;2022-07-06T04:08:32;14.00;99.90
5276;DHT22;2661;50.786;12.728;2022-07-06T04:10:59;14.00;99.90
5276;DHT22;2661;50.786;12.728;2022-07-06T04:13:26;14.10;99.90
5276;DHT22;2661;50.786;12.728;2022-07-06T04:15:52;14.10;99.90
5276;DHT22;2661;50.786;12.728;2022-07-06T04:18:19;14.10;99.90
5276;DHT22;2661;50.786;12.728;2022-07-06T04:20:46;14.20;99.90
5276;DHT22;2661;50.786;12.728;2022-07-06T04:23:13;14.20;99.90
5276;DHT22;2661;50.786;12.728;2022-07-06T04:25:40;14.20;99.90
5276;DHT22;2661;50.786;12.728;2022-07-06T04:28:07;14.30;99.90
5276;DHT22;2661;50.786;12.728;2022-07-06T04:30:33;14.40;99.90
5276;DHT22;2661;50.786;12.728;2022-07-06T04:33:00;14.40;99.90
5276;DHT22;2661;50.786;12.728;2022-07-06T04:35:27;14.40;99.90
5276;DHT22;2661;50.786;12.728;2022-07-06T04:37:54;14.40;99.90
5276;DHT22;2661;50.786;12.728;2022-07-06T04:40:20;14.50;99.90
5276;DHT22;2661;50.786;12.728;2022-07-06T04:42:47;14.50;99.90
5276;DHT22;2661;50.786;12.728;2022-07-06T04:45:14;14.50;99.90
5276;DHT22;2661;50.786;12.728;2022-07-06T04:47:41;14.50;99.90
5276;DHT22;2661;50.786;12.728;2022-07-06T04:50:10;14.60;99.90
5276;DHT22;2661;50.786;12.728;2022-07-06T04:52:37;14.60;99.90
5276;DHT22;2661;50.786;12.728;2022-07-06T04:55:04;14.70;99.90
5276;DHT22;2661;50.786;12.728;2022-07-06T04:57:32;14.80;99.90
5276;DHT22;2661;50.786;12.728;2022-07-06T04:59:59;14.80;99.90
5276;DHT22;2661;50.786;12.728;2022-07-06T05:02:25;14.90;99.90
5276;DHT22;2661;50.786;12.728;2022-07-06T05:04:52;14.90;99.90
5276;DHT22;2661;50.786;12.728;2022-07-06T05:07:19;14.90;99.90
5276;DHT22;2661;50.786;12.728;2022-07-06T05:09:46;14.90;99.90
5276;DHT22;2661;50.786;12.728;2022-07-06T05:12:17;15.00;99.90
5276;DHT22;2661;50.786;12.728;2022-07-06T05:14:44;15.00;99.90
5276;DHT22;2661;50.786;12.728;2022-07-06T05:17:11;15.00;99.90
5276;DHT22;2661;50.786;12.728;2022-07-06T05:19:37;15.10;99.90
5276;DHT22;2661;50.786;12.728;2022-07-06T05:22:04;15.00;99.90
5276;DHT22;2661;50.786;12.728;2022-07-06T05:24:31;15.00;99.90
5276;DHT22;2661;50.786;12.728;2022-07-06T05:26:58;15.20;99.90
5276;DHT22;2661;50.786;12.728;2022-07-06T05:29:25;15.10;99.90
5276;DHT22;2661;50.786;12.728;2022-07-06T05:31:51;15.30;99.90
5276;DHT22;2661;50.786;12.728;2022-07-06T05:34:18;15.50;99.90
5276;DHT22;2661;50.786;12.728;2022-07-06T05:36:45;15.60;99.90
5276;DHT22;2661;50.786;12.728;2022-07-06T05:39:12;15.70;99.90
5276;DHT22;2661;50.786;12.728;2022-07-06T05:41:38;16.00;99.90
5276;DHT22;2661;50.786;12.728;2022-07-06T05:44:05;16.00;99.90
5276;DHT22;2661;50.786;12.728;2022-07-06T05:46:32;16.00;99.90
5276;DHT22;2661;50.786;12.728;2022-07-06T05:48:58;16.00;99.90
5276;DHT22;2661;50.786;12.728;2022-07-06T05:51:44;16.00;99.90
5276;DHT22;2661;50.786;12.728;2022-07-06T05:54:10;15.90;99.90
5276;DHT22;2661;50.786;12.728;2022-07-06T05:56:37;15.90;99.90
5276;DHT22;2661;50.786;12.728;2022-07-06T05:59:04;15.80;99.90
5276;DHT22;2661;50.786;12.728;2022-07-06T06:01:31;15.80;99.90
5276;DHT22;2661;50.786;12.728;2022-07-06T06:03:57;15.90;99.90
5276;DHT22;2661;50.786;12.728;2022-07-06T06:06:26;15.90;99.90
5276;DHT22;2661;50.786;12.728;2022-07-06T06:08:52;15.90;99.90
5276;DHT22;2661;50.786;12.728;2022-07-06T06:11:19;15.90;99.90
5276;DHT22;2661;50.786;12.728;2022-07-06T06:13:46;15.90;99.90
5276;DHT22;2661;50.786;12.728;2022-07-06T06:16:13;16.10;99.90
5276;DHT22;2661;50.786;12.728;2022-07-06T06:18:39;16.30;99.90
5276;DHT22;2661;50.786;12.728;2022-07-06T06:21:08;16.40;99.90
5276;DHT22;2661;50.786;12.728;2022-07-06T06:23:35;16.40;99.90
5276;DHT22;2661;50.786;12.728;2022-07-06T06:26:02;16.40;99.90
5276;DHT22;2661;50.786;12.728;2022-07-06T06:28:29;16.40;99.90
5276;DHT22;2661;50.786;12.728;2022-07-06T06:30:55;16.40;99.90
5276;DHT22;2661;50.786;12.728;2022-07-06T06:33:22;16.40;99.90
5276;DHT22;2661;50.786;12.728;2022-07-06T06:35:52;16.40;99.90
5276;DHT22;2661;50.786;12.728;2022-07-06T06:38:21;16.60;99.90
5276;DHT22;2661;50.786;12.728;2022-07-06T06:40:48;16.60;99.90
5276;DHT22;2661;50.786;12.728;2022-07-06T06:43:15;16.80;99.90
5276;DHT22;2661;50.786;12.728;2022-07-06T06:45:42;16.80;99.90
5276;DHT22;2661;50.786;12.728;2022-07-06T06:48:09;16.70;99.90
5276;DHT22;2661;50.786;12.728;2022-07-06T06:50:43;16.90;99.90
5276;DHT22;2661;50.786;12.728;2022-07-06T06:53:09;16.90;99.90
5276;DHT22;2661;50.786;12.728;2022-07-06T06:55:36;17.00;99.90
5276;DHT22;2661;50.786;12.728;2022-07-06T06:58:03;17.10;99.90
5276;DHT22;2661;50.786;12.728;2022-07-06T07:00:29;17.10;99.90
5276;DHT22;2661;50.786;12.728;2022-07-06T07:02:56;17.30;99.90
5276;DHT22;2661;50.786;12.728;2022-07-06T07:05:23;17.40;99.90
5276;DHT22;2661;50.786;12.728;2022-07-06T07:07:50;17.30;99.90
5276;DHT22;2661;50.786;12.728;2022-07-06T07:10:16;17.30;99.90
5276;DHT22;2661;50.786;12.728;2022-07-06T07:12:46;17.20;99.90
5276;DHT22;2661;50.786;12.728;2022-07-06T07:15:13;17.20;99.90
5276;DHT22;2661;50.786;12.728;2022-07-06T07:17:40;17.10;99.90
5276;DHT22;2661;50.786;12.728;2022-07-06T07:20:07;17.10;99.90
5276;DHT22;2661;50.786;12.728;2022-07-06T07:22:35;17.10;99.90
5276;DHT22;2661;50.786;12.728;2022-07-06T07:25:02;17.00;99.90
5276;DHT22;2661;50.786;12.728;2022-07-06T07:27:28;17.00;99.90
5276;DHT22;2661;50.786;12.728;2022-07-06T07:29:55;16.90;99.90
5276;DHT22;2661;50.786;12.728;2022-07-06T07:32:22;17.00;99.90
5276;DHT22;2661;50.786;12.728;2022-07-06T07:34:49;17.10;99.90
5276;DHT22;2661;50.786;12.728;2022-07-06T07:37:15;17.30;99.90
5276;DHT22;2661;50.786;12.728;2022-07-06T07:39:42;17.40;99.90
5276;DHT22;2661;50.786;12.728;2022-07-06T07:42:09;17.30;99.90
5276;DHT22;2661;50.786;12.728;2022-07-06T07:44:43;17.50;99.90
5276;DHT22;2661;50.786;12.728;2022-07-06T07:47:09;17.50;99.90
5276;DHT22;2661;50.786;12.728;2022-07-06T07:49:36;17.60;99.90
5276;DHT22;2661;50.786;12.728;2022-07-06T07:52:03;17.50;99.90
5276;DHT22;2661;50.786;12.728;2022-07-06T07:54:30;17.50;99.90
5276;DHT22;2661;50.786;12.728;2022-07-06T07:56:57;17.40;99.90
5276;DHT22;2661;50.786;12.728;2022-07-06T07:59:24;17.40;99.90
5276;DHT22;2661;50.786;12.728;2022-07-06T08:01:51;17.40;99.90
5276;DHT22;2661;50.786;12.728;2022-07-06T08:04:18;17.40;99.90
5276;DHT22;2661;50.786;12.728;2022-07-06T08:06:44;17.60;99.90
5276;DHT22;2661;50.786;12.728;2022-07-06T08:09:11;17.60;99.90
5276;DHT22;2661;50.786;12.728;2022-07-06T08:11:38;17.60;99.90
5276;DHT22;2661;50.786;12.728;2022-07-06T08:14:05;17.80;99.90
5276;DHT22;2661;50.786;12.728;2022-07-06T08:16:32;17.90;99.90
5276;DHT22;2661;50.786;12.728;2022-07-06T08:18:59;17.70;99.90
5276;DHT22;2661;50.786;12.728;2022-07-06T08:21:25;17.70;99.90
5276;DHT22;2661;50.786;12.728;2022-07-06T08:23:53;17.70;99.90
5276;DHT22;2661;50.786;12.728;2022-07-06T08:26:20;17.80;99.90
5276;DHT22;2661;50.786;12.728;2022-07-06T08:28:47;17.80;99.90
5276;DHT22;2661;50.786;12.728;2022-07-06T08:31:14;17.90;99.90
5276;DHT22;2661;50.786;12.728;2022-07-06T08:34:02;18.10;99.90
5276;DHT22;2661;50.786;12.728;2022-07-06T08:36:29;18.10;99.90
5276;DHT22;2661;50.786;12.728;2022-07-06T08:38:56;18.10;99.90
5276;DHT22;2661;50.786;12.728;2022-07-06T08:41:23;18.00;99.90
5276;DHT22;2661;50.786;12.728;2022-07-06T08:43:52;18.00;99.90
5276;DHT22;2661;50.786;12.728;2022-07-06T08:46:19;17.90;99.90
5276;DHT22;2661;50.786;12.728;2022-07-06T08:48:46;17.80;99.90
5276;DHT22;2661;50.786;12.728;2022-07-06T08:51:13;17.90;99.90
5276;DHT22;2661;50.786;12.728;2022-07-06T08:53:44;17.90;99.90
5276;DHT22;2661;50.786;12.728;2022-07-06T08:56:11;17.90;99.90
5276;DHT22;2661;50.786;12.728;2022-07-06T08:58:38;17.80;99.90
5276;DHT22;2661;50.786;12.728;2022-07-06T09:01:09;17.70;99.90
5276;DHT22;2661;50.786;12.728;2022-07-06T09:03:36;17.70;99.90
5276;DHT22;2661;50.786;12.728;2022-07-06T09:06:04;17.60;99.90
5276;DHT22;2661;50.786;12.728;2022-07-06T09:08:33;17.80;99.90
5276;DHT22;2661;50.786;12.728;2022-07-06T09:10:59;17.80;99.90
5276;DHT22;2661;50.786;12.728;2022-07-06T09:13:26;17.90;99.90
5276;DHT22;2661;50.786;12.728;2022-07-06T09:15:53;17.90;99.90
5276;DHT22;2661;50.786;12.728;2022-07-06T09:18:41;18.00;99.90
5276;DHT22;2661;50.786;12.728;2022-07-06T09:21:09;18.10;99.90
5276;DHT22;2661;50.786;12.728;2022-07-06T09:23:37;18.20;99.90
5276;DHT22;2661;50.786;12.728;2022-07-06T09:26:07;18.20;99.90
5276;DHT22;2661;50.786;12.728;2022-07-06T09:28:40;18.30;99.90
5276;DHT22;2661;50.786;12.728;2022-07-06T09:31:07;18.40;99.90
5276;DHT22;2661;50.786;12.728;2022-07-06T09:33:59;18.30;99.90
5276;DHT22;2661;50.786;12.728;2022-07-06T09:39:31;18.50;99.90
5276;DHT22;2661;50.786;12.728;2022-07-06T09:41:58;18.70;99.90
5276;DHT22;2661;50.786;12.728;2022-07-06T09:44:59;18.70;99.90
5276;DHT22;2661;50.786;12.728;2022-07-06T09:47:19;18.80;99.90
5276;DHT22;2661;50.786;12.728;2022-07-06T09:49:46;18.90;99.90
5276;DHT22;2661;50.786;12.728;2022-07-06T09:52:14;19.00;99.90
5276;DHT22;2661;50.786;12.728;2022-07-06T09:54:41;19.00;99.90
5276;DHT22;2661;50.786;12.728;2022-07-06T09:57:08;19.00;99.90
5276;DHT22;2661;50.786;12.728;2022-07-06T09:59:36;18.70;99.90
5276;DHT22;2661;50.786;12.728;2022-07-06T10:02:03;18.40;99.90
5276;DHT22;2661;50.786;12.728;2022-07-06T10:04:31;18.50;99.90
5276;DHT22;2661;50.786;12.728;2022-07-06T10:06:58;18.50;99.90
5276;DHT22;2661;50.786;12.728;2022-07-06T10:09:26;18.60;99.90
5276;DHT22;2661;50.786;12.728;2022-07-06T10:11:54;18.60;99.90
5276;DHT22;2661;50.786;12.728;2022-07-06T10:14:22;18.50;99.90
5276;DHT22;2661;50.786;12.728;2022-07-06T10:16:50;18.50;99.90
5276;DHT22;2661;50.786;12.728;2022-07-06T10:19:18;18.60;99.90
5276;DHT22;2661;50.786;12.728;2022-07-06T10:21:45;18.60;99.90
5276;DHT22;2661;50.786;12.728;2022-07-06T10:24:12;18.70;99.90
5276;DHT22;2661;50.786;12.728;2022-07-06T10:26:40;19.00;99.90
5276;DHT22;2661;50.786;12.728;2022-07-06T10:29:07;19.30;99.90
5276;DHT22;2661;50.786;12.728;2022-07-06T10:31:35;19.50;99.90
5276;DHT22;2661;50.786;12.728;2022-07-06T10:34:04;19.50;99.90
5276;DHT22;2661;50.786;12.728;2022-07-06T10:36:32;19.60;99.90
5276;DHT22;2661;50.786;12.728;2022-07-06T10:39:05;19.70;99.90
5276;DHT22;2661;50.786;12.728;2022-07-06T10:41:52;19.60;99.90
5276;DHT22;2661;50.786;12.728;2022-07-06T10:44:23;19.50;99.90
5276;DHT22;2661;50.786;12.728;2022-07-06T10:46:51;19.40;99.90
5276;DHT22;2661;50.786;12.728;2022-07-06T10:49:19;19.20;99.90
5276;DHT22;2661;50.786;12.728;2022-07-06T10:52:06;19.00;99.90
5276;DHT22;2661;50.786;12.728;2022-07-06T10:54:39;19.00;99.90
5276;DHT22;2661;50.786;12.728;2022-07-06T10:57:08;19.20;99.90
5276;DHT22;2661;50.786;12.728;2022-07-06T10:59:35;19.30;99.90
5276;DHT22;2661;50.786;12.728;2022-07-06T11:02:17;19.40;99.90
5276;DHT22;2661;50.786;12.728;2022-07-06T11:04:46;19.50;99.90
5276;DHT22;2661;50.786;12.728;2022-07-06T11:07:14;19.70;99.90
5276;DHT22;2661;50.786;12.728;2022-07-06T11:09:41;19.90;99.90
5276;DHT22;2661;50.786;12.728;2022-07-06T11:12:15;19.90;99.90
5276;DHT22;2661;50.786;12.728;2022-07-06T11:14:43;20.00;99.90
5276;DHT22;2661;50.786;12.728;2022-07-06T11:17:10;20.10;99.90
5276;DHT22;2661;50.786;12.728;2022-07-06T11:19:37;20.20;99.90
5276;DHT22;2661;50.786;12.728;2022-07-06T11:22:08;20.20;99.90
5276;DHT22;2661;50.786;12.728;2022-07-06T11:24:36;20.00;99.90
5276;DHT22;2661;50.786;12.728;2022-07-06T11:27:03;19.80;99.90
5276;DHT22;2661;50.786;12.728;2022-07-06T11:29:30;19.60;99.90
5276;DHT22;2661;50.786;12.728;2022-07-06T11:31:57;19.50;99.90
5276;DHT22;2661;50.786;12.728;2022-07-06T11:34:26;19.50;99.90
5276;DHT22;2661;50.786;12.728;2022-07-06T11:37:04;19.50;99.90
5276;DHT22;2661;50.786;12.728;2022-07-06T11:39:31;19.50;99.90
5276;DHT22;2661;50.786;12.728;2022-07-06T11:41:59;19.40;99.90
5276;DHT22;2661;50.786;12.728;2022-07-06T11:44:27;19.30;99.90
5276;DHT22;2661;50.786;12.728;2022-07-06T11:46:53;19.60;99.90
5276;DHT22;2661;50.786;12.728;2022-07-06T11:49:25;19.90;99.90
5276;DHT22;2661;50.786;12.728;2022-07-06T11:51:52;20.10;99.90
5276;DHT22;2661;50.786;12.728;2022-07-06T11:54:19;20.30;99.90
5276;DHT22;2661;50.786;12.728;2022-07-06T11:59:23;20.20;99.90
5276;DHT22;2661;50.786;12.728;2022-07-06T12:01:57;20.00;99.90
5276;DHT22;2661;50.786;12.728;2022-07-06T12:04:24;19.80;99.90
5276;DHT22;2661;50.786;12.728;2022-07-06T12:06:51;19.60;99.90
5276;DHT22;2661;50.786;12.728;2022-07-06T12:09:18;19.40;99.90
5276;DHT22;2661;50.786;12.728;2022-07-06T12:11:47;19.60;99.90
5276;DHT22;2661;50.786;12.728;2022-07-06T12:14:15;19.70;99.90
5276;DHT22;2661;50.786;12.728;2022-07-06T12:16:42;19.80;99.90
5276;DHT22;2661;50.786;12.728;2022-07-06T12:19:09;19.80;99.90
5276;DHT22;2661;50.786;12.728;2022-07-06T12:21:44;19.90;99.90
5276;DHT22;2661;50.786;12.728;2022-07-06T12:24:16;20.20;99.90
5276;DHT22;2661;50.786;12.728;2022-07-06T12:26:43;20.40;99.90
5276;DHT22;2661;50.786;12.728;2022-07-06T12:29:10;20.40;99.90
5276;DHT22;2661;50.786;12.728;2022-07-06T12:31:41;20.40;99.90
5276;DHT22;2661;50.786;12.728;2022-07-06T12:34:24;20.40;99.90
5276;DHT22;2661;50.786;12.728;2022-07-06T12:36:52;20.30;99.90
5276;DHT22;2661;50.786;12.728;2022-07-06T12:39:19;20.30;99.90
5276;DHT22;2661;50.786;12.728;2022-07-06T12:41:47;20.40;99.90
5276;DHT22;2661;50.786;12.728;2022-07-06T12:44:19;20.50;99.90
5276;DHT22;2661;50.786;12.728;2022-07-06T12:46:46;20.60;99.90
5276;DHT22;2661;50.786;12.728;2022-07-06T12:49:21;20.70;99.90
5276;DHT22;2661;50.786;12.728;2022-07-06T12:54:28;20.90;99.90
5276;DHT22;2661;50.786;12.728;2022-07-06T12:56:56;20.70;99.90
5276;DHT22;2661;50.786;12.728;2022-07-06T12:59:23;20.60;99.90
5276;DHT22;2661;50.786;12.728;2022-07-06T13:01:50;20.60;99.90
5276;DHT22;2661;50.786;12.728;2022-07-06T13:04:27;20.50;99.90
5276;DHT22;2661;50.786;12.728;2022-07-06T13:06:54;20.50;99.90
5276;DHT22;2661;50.786;12.728;2022-07-06T13:09:21;20.60;99.90
5276;DHT22;2661;50.786;12.728;2022-07-06T13:11:48;20.90;99.90
5276;DHT22;2661;50.786;12.728;2022-07-06T13:14:15;21.10;99.90
5276;DHT22;2661;50.786;12.728;2022-07-06T13:16:43;21.20;99.90
5276;DHT22;2661;50.786;12.728;2022-07-06T13:19:10;21.30;99.90
5276;DHT22;2661;50.786;12.728;2022-07-06T13:21:37;21.10;99.90
5276;DHT22;2661;50.786;12.728;2022-07-06T13:24:04;21.00;99.90
5276;DHT22;2661;50.786;12.728;2022-07-06T13:26:32;21.20;99.90
5276;DHT22;2661;50.786;12.728;2022-07-06T13:29:00;21.30;99.90
5276;DHT22;2661;50.786;12.728;2022-07-06T13:31:27;21.20;99.90
5276;DHT22;2661;50.786;12.728;2022-07-06T13:33:54;21.00;99.90
5276;DHT22;2661;50.786;12.728;2022-07-06T13:36:21;20.90;99.90
5276;DHT22;2661;50.786;12.728;2022-07-06T13:38:48;20.90;99.90
5276;DHT22;2661;50.786;12.728;2022-07-06T13:41:15;20.90;99.90
5276;DHT22;2661;50.786;12.728;2022-07-06T13:43:41;21.10;99.90
5276;DHT22;2661;50.786;12.728;2022-07-06T13:46:08;21.10;99.90
5276;DHT22;2661;50.786;12.728;2022-07-06T13:48:37;21.10;99.90
5276;DHT22;2661;50.786;12.728;2022-07-06T13:51:04;21.00;99.90
5276;DHT22;2661;50.786;12.728;2022-07-06T13:53:31;20.80;99.90
5276;DHT22;2661;50.786;12.728;2022-07-06T13:55:59;20.90;99.90
5276;DHT22;2661;50.786;12.728;2022-07-06T13:58:26;21.10;99.90
5276;DHT22;2661;50.786;12.728;2022-07-06T14:00:52;21.10;99.90
5276;DHT22;2661;50.786;12.728;2022-07-06T14:03:19;21.10;99.90
5276;DHT22;2661;50.786;12.728;2022-07-06T14:05:46;21.30;99.90
5276;DHT22;2661;50.786;12.728;2022-07-06T14:08:14;21.30;99.90
5276;DHT22;2661;50.786;12.728;2022-07-06T14:10:40;21.20;99.90
5276;DHT22;2661;50.786;12.728;2022-07-06T14:13:07;21.20;99.90
5276;DHT22;2661;50.786;12.728;2022-07-06T14:15:34;21.30;99.90
5276;DHT22;2661;50.786;12.728;2022-07-06T14:18:00;21.40;99.90
5276;DHT22;2661;50.786;12.728;2022-07-06T14:20:27;21.30;99.90
5276;DHT22;2661;50.786;12.728;2022-07-06T14:22:54;21.20;99.90
5276;DHT22;2661;50.786;12.728;2022-07-06T14:25:21;21.10;1.00
5276;DHT22;2661;50.786;12.728;2022-07-06T14:27:48;21.10;1.00
5276;DHT22;2661;50.786;12.728;2022-07-06T14:30:14;21.00;99.90
5276;DHT22;2661;50.786;12.728;2022-07-06T14:32:41;21.10;99.90
5276;DHT22;2661;50.786;12.728;2022-07-06T14:35:10;21.20;99.90
5276;DHT22;2661;50.786;12.728;2022-07-06T14:37:37;21.30;99.90
5276;DHT22;2661;50.786;12.728;2022-07-06T14:40:04;21.40;99.90
5276;DHT22;2661;50.786;12.728;2022-07-06T14:42:31;21.30;99.90
5276;DHT22;2661;50.786;12.728;2022-07-06T14:44:57;21.30;99.90
5276;DHT22;2661;50.786;12.728;2022-07-06T14:47:24;21.30;99.90
5276;DHT22;2661;50.786;12.728;2022-07-06T14:49:51;21.30;99.90
5276;DHT22;2661;50.786;12.728;2022-07-06T14:52:19;21.40;99.90
5276;DHT22;2661;50.786;12.728;2022-07-06T14:54:46;21.60;99.90
5276;DHT22;2661;50.786;12.728;2022-07-06T14:57:12;21.50;99.90
5276;DHT22;2661;50.786;12.728;2022-07-06T14:59:39;21.30;99.90
5276;DHT22;2661;50.786;12.728;2022-07-06T15:02:06;21.30;99.90
5276;DHT22;2661;50.786;12.728;2022-07-06T15:04:32;21.30;99.90
5276;DHT22;2661;50.786;12.728;2022-07-06T15:06:59;21.40;99.90
5276;DHT22;2661;50.786;12.728;2022-07-06T15:09:26;21.50;99.90
5276;DHT22;2661;50.786;12.728;2022-07-06T15:11:55;21.60;99.90
5276;DHT22;2661;50.786;12.728;2022-07-06T15:14:22;21.60;99.90
5276;DHT22;2661;50.786;12.728;2022-07-06T15:16:49;21.60;99.90
5276;DHT22;2661;50.786;12.728;2022-07-06T15:19:16;21.90;99.90
5276;DHT22;2661;50.786;12.728;2022-07-06T15:21:42;22.10;99.90
5276;DHT22;2661;50.786;12.728;2022-07-06T15:24:09;22.20;99.90
5276;DHT22;2661;50.786;12.728;2022-07-06T15:26:36;22.30;99.90
5276;DHT22;2661;50.786;12.728;2022-07-06T15:29:03;22.40;99.90
5276;DHT22;2661;50.786;12.728;2022-07-06T15:31:30;22.30;99.90
5276;DHT22;2661;50.786;12.728;2022-07-06T15:33:58;22.10;99.90
5276;DHT22;2661;50.786;12.728;2022-07-06T15:36:25;21.90;99.90
5276;DHT22;2661;50.786;12.728;2022-07-06T15:38:51;21.70;99.90
5276;DHT22;2661;50.786;12.728;2022-07-06T15:41:18;21.80;99.90
5276;DHT22;2661;50.786;12.728;2022-07-06T15:43:45;22.10;99.90
5276;DHT22;2661;50.786;12.728;2022-07-06T15:46:20;22.40;99.90
5276;DHT22;2661;50.786;12.728;2022-07-06T15:48:47;22.60;99.90
5276;DHT22;2661;50.786;12.728;2022-07-06T15:51:14;22.60;99.90
5276;DHT22;2661;50.786;12.728;2022-07-06T15:53:40;22.50;99.90
5276;DHT22;2661;50.786;12.728;2022-07-06T15:56:11;22.30;99.90
5276;DHT22;2661;50.786;12.728;2022-07-06T15:58:39;22.20;99.90